Madison Heights, Michigan
Current Conditions -  °F | °C
As of 2:14 AM on Sunday 26 Oct 2014 (Local Time) from KVLL Reporting Station
Clear Clear  
Wind Chill: 53°   Ceiling: Unl
Heat Index: 53°   Visibility: 10mi
Dew Point: 29°   Wind: 9mph
Humidity: 40%   Direction: 310°NW
Pressure: 29.84"   Gusts: 16mph
Location:  42.52°N, 83.11°W
Report Text: KVLL 260614Z AUTO 31008G14KT 10SM CLR 12/M02 A2984 RMK AO2 T01161016
Loading
Personal Weather Stations






























Interactive Weather Map
Tropical Storm Tracking
New forecast layout! Learn more

10-Day Weather Forecast

Advertisements
Track Severe Weather on mobile